sensor_id;sensor_type;location;lat;lon;timestamp;P1;durP1;ratioP1;P2;durP2;ratioP2
58864;SDS011;45702;52.982;6.658;2023-04-28T00:01:47;19.30;;;11.05;;
58864;SDS011;45702;52.982;6.658;2023-04-28T00:04:13;18.90;;;11.15;;
58864;SDS011;45702;52.982;6.658;2023-04-28T00:06:39;19.67;;;10.20;;
58864;SDS011;45702;52.982;6.658;2023-04-28T00:09:05;19.98;;;10.73;;
58864;SDS011;45702;52.982;6.658;2023-04-28T00:11:35;22.00;;;10.60;;
58864;SDS011;45702;52.982;6.658;2023-04-28T00:14:04;23.92;;;11.73;;
58864;SDS011;45702;52.982;6.658;2023-04-28T00:16:30;20.60;;;11.48;;
58864;SDS011;45702;52.982;6.658;2023-04-28T00:18:55;21.58;;;11.82;;
58864;SDS011;45702;52.982;6.658;2023-04-28T00:21:21;22.05;;;11.13;;
58864;SDS011;45702;52.982;6.658;2023-04-28T00:23:47;21.92;;;11.80;;
58864;SDS011;45702;52.982;6.658;2023-04-28T00:26:12;24.52;;;11.68;;
58864;SDS011;45702;52.982;6.658;2023-04-28T00:28:38;24.60;;;12.07;;
58864;SDS011;45702;52.982;6.658;2023-04-28T00:31:10;26.27;;;12.20;;
58864;SDS011;45702;52.982;6.658;2023-04-28T00:33:37;22.40;;;12.15;;
58864;SDS011;45702;52.982;6.658;2023-04-28T00:36:03;24.42;;;12.00;;
58864;SDS011;45702;52.982;6.658;2023-04-28T00:38:29;22.48;;;11.63;;
58864;SDS011;45702;52.982;6.658;2023-04-28T00:40:55;21.70;;;11.07;;
58864;SDS011;45702;52.982;6.658;2023-04-28T00:43:21;22.27;;;11.73;;
58864;SDS011;45702;52.982;6.658;2023-04-28T00:45:49;19.63;;;11.73;;
58864;SDS011;45702;52.982;6.658;2023-04-28T00:48:16;20.02;;;11.57;;
58864;SDS011;45702;52.982;6.658;2023-04-28T00:50:43;18.10;;;11.95;;
58864;SDS011;45702;52.982;6.658;2023-04-28T00:53:10;24.02;;;12.35;;
58864;SDS011;45702;52.982;6.658;2023-04-28T00:55:36;20.85;;;11.63;;
58864;SDS011;45702;52.982;6.658;2023-04-28T00:58:03;22.58;;;11.70;;
58864;SDS011;45702;52.982;6.658;2023-04-28T01:00:30;22.35;;;12.02;;
58864;SDS011;45702;52.982;6.658;2023-04-28T01:02:56;23.15;;;11.73;;
58864;SDS011;45702;52.982;6.658;2023-04-28T01:05:25;24.27;;;12.50;;
58864;SDS011;45702;52.982;6.658;2023-04-28T01:07:52;22.88;;;12.50;;
58864;SDS011;45702;52.982;6.658;2023-04-28T01:10:18;23.25;;;12.68;;
58864;SDS011;45702;52.982;6.658;2023-04-28T01:12:44;25.42;;;13.68;;
58864;SDS011;45702;52.982;6.658;2023-04-28T01:15:12;24.65;;;13.38;;
58864;SDS011;45702;52.982;6.658;2023-04-28T01:17:41;27.10;;;14.02;;
58864;SDS011;45702;52.982;6.658;2023-04-28T01:20:08;33.10;;;15.07;;
58864;SDS011;45702;52.982;6.658;2023-04-28T01:22:34;29.42;;;14.50;;
58864;SDS011;45702;52.982;6.658;2023-04-28T01:25:00;26.67;;;15.13;;
58864;SDS011;45702;52.982;6.658;2023-04-28T01:27:27;28.60;;;14.60;;
58864;SDS011;45702;52.982;6.658;2023-04-28T01:29:53;27.42;;;14.75;;
58864;SDS011;45702;52.982;6.658;2023-04-28T01:32:18;32.55;;;14.80;;
58864;SDS011;45702;52.982;6.658;2023-04-28T01:34:44;31.65;;;15.68;;
58864;SDS011;45702;52.982;6.658;2023-04-28T01:37:10;30.77;;;15.48;;
58864;SDS011;45702;52.982;6.658;2023-04-28T01:39:36;31.58;;;16.02;;
58864;SDS011;45702;52.982;6.658;2023-04-28T01:42:02;34.40;;;16.60;;
58864;SDS011;45702;52.982;6.658;2023-04-28T01:44:28;30.92;;;16.27;;
58864;SDS011;45702;52.982;6.658;2023-04-28T01:46:53;32.60;;;17.15;;
58864;SDS011;45702;52.982;6.658;2023-04-28T01:49:19;30.33;;;16.42;;
58864;SDS011;45702;52.982;6.658;2023-04-28T01:51:45;32.13;;;15.77;;
58864;SDS011;45702;52.982;6.658;2023-04-28T01:54:11;31.58;;;16.27;;
58864;SDS011;45702;52.982;6.658;2023-04-28T01:56:36;31.38;;;16.75;;
58864;SDS011;45702;52.982;6.658;2023-04-28T01:59:02;33.63;;;17.30;;
58864;SDS011;45702;52.982;6.658;2023-04-28T02:01:28;29.55;;;16.08;;
58864;SDS011;45702;52.982;6.658;2023-04-28T02:03:53;39.85;;;17.65;;
58864;SDS011;45702;52.982;6.658;2023-04-28T02:06:19;32.92;;;17.10;;
58864;SDS011;45702;52.982;6.658;2023-04-28T02:08:45;31.73;;;16.17;;
58864;SDS011;45702;52.982;6.658;2023-04-28T02:11:11;34.22;;;16.45;;
58864;SDS011;45702;52.982;6.658;2023-04-28T02:13:37;34.55;;;17.42;;
58864;SDS011;45702;52.982;6.658;2023-04-28T02:16:02;30.67;;;16.60;;
58864;SDS011;45702;52.982;6.658;2023-04-28T02:18:28;32.55;;;16.70;;
58864;SDS011;45702;52.982;6.658;2023-04-28T02:20:54;36.63;;;16.83;;
58864;SDS011;45702;52.982;6.658;2023-04-28T02:23:20;34.08;;;17.67;;
58864;SDS011;45702;52.982;6.658;2023-04-28T02:25:46;38.92;;;17.42;;
58864;SDS011;45702;52.982;6.658;2023-04-28T02:28:11;34.20;;;17.25;;
58864;SDS011;45702;52.982;6.658;2023-04-28T02:30:37;32.90;;;17.58;;
58864;SDS011;45702;52.982;6.658;2023-04-28T02:33:03;36.03;;;16.77;;
58864;SDS011;45702;52.982;6.658;2023-04-28T02:35:28;36.95;;;17.95;;
58864;SDS011;45702;52.982;6.658;2023-04-28T02:37:54;36.17;;;18.00;;
58864;SDS011;45702;52.982;6.658;2023-04-28T02:40:20;38.08;;;18.10;;
58864;SDS011;45702;52.982;6.658;2023-04-28T02:42:45;36.05;;;17.67;;
58864;SDS011;45702;52.982;6.658;2023-04-28T02:45:11;36.78;;;17.13;;
58864;SDS011;45702;52.982;6.658;2023-04-28T02:47:37;38.40;;;18.80;;
58864;SDS011;45702;52.982;6.658;2023-04-28T02:50:02;33.92;;;17.70;;
58864;SDS011;45702;52.982;6.658;2023-04-28T02:52:28;36.45;;;17.90;;
58864;SDS011;45702;52.982;6.658;2023-04-28T02:54:54;41.22;;;18.80;;
58864;SDS011;45702;52.982;6.658;2023-04-28T02:57:21;40.03;;;18.77;;
58864;SDS011;45702;52.982;6.658;2023-04-28T02:59:48;41.65;;;19.75;;
58864;SDS011;45702;52.982;6.658;2023-04-28T03:02:13;38.58;;;19.70;;
58864;SDS011;45702;52.982;6.658;2023-04-28T03:04:40;44.97;;;20.10;;
58864;SDS011;45702;52.982;6.658;2023-04-28T03:07:06;43.22;;;20.35;;
58864;SDS011;45702;52.982;6.658;2023-04-28T03:09:31;45.20;;;20.90;;
58864;SDS011;45702;52.982;6.658;2023-04-28T03:11:57;43.17;;;20.77;;
58864;SDS011;45702;52.982;6.658;2023-04-28T03:14:23;42.20;;;20.42;;
58864;SDS011;45702;52.982;6.658;2023-04-28T03:16:49;41.08;;;20.40;;
58864;SDS011;45702;52.982;6.658;2023-04-28T03:19:15;44.75;;;20.45;;
58864;SDS011;45702;52.982;6.658;2023-04-28T03:21:41;41.75;;;21.00;;
58864;SDS011;45702;52.982;6.658;2023-04-28T03:24:06;46.75;;;21.75;;
58864;SDS011;45702;52.982;6.658;2023-04-28T03:26:32;48.85;;;22.60;;
58864;SDS011;45702;52.982;6.658;2023-04-28T03:28:58;51.60;;;21.92;;
58864;SDS011;45702;52.982;6.658;2023-04-28T03:31:24;47.78;;;21.25;;
58864;SDS011;45702;52.982;6.658;2023-04-28T03:33:49;48.35;;;20.67;;
58864;SDS011;45702;52.982;6.658;2023-04-28T03:36:15;45.40;;;21.63;;
58864;SDS011;45702;52.982;6.658;2023-04-28T03:38:41;47.22;;;21.65;;
58864;SDS011;45702;52.982;6.658;2023-04-28T03:41:08;44.08;;;21.27;;
58864;SDS011;45702;52.982;6.658;2023-04-28T03:43:33;45.80;;;21.10;;
58864;SDS011;45702;52.982;6.658;2023-04-28T03:46:01;47.58;;;22.02;;
58864;SDS011;45702;52.982;6.658;2023-04-28T03:48:28;49.95;;;21.60;;
58864;SDS011;45702;52.982;6.658;2023-04-28T03:50:53;46.28;;;21.42;;
58864;SDS011;45702;52.982;6.658;2023-04-28T03:53:19;45.13;;;20.52;;
58864;SDS011;45702;52.982;6.658;2023-04-28T03:55:45;47.67;;;22.65;;
58864;SDS011;45702;52.982;6.658;2023-04-28T03:58:10;47.05;;;21.38;;
58864;SDS011;45702;52.982;6.658;2023-04-28T04:00:36;55.15;;;22.15;;
58864;SDS011;45702;52.982;6.658;2023-04-28T04:03:02;43.65;;;21.33;;
58864;SDS011;45702;52.982;6.658;2023-04-28T04:05:28;48.25;;;21.77;;
58864;SDS011;45702;52.982;6.658;2023-04-28T04:07:53;45.47;;;21.83;;
58864;SDS011;45702;52.982;6.658;2023-04-28T04:10:20;46.40;;;21.85;;
58864;SDS011;45702;52.982;6.658;2023-04-28T04:12:45;47.22;;;22.73;;
58864;SDS011;45702;52.982;6.658;2023-04-28T04:15:11;45.42;;;21.48;;
58864;SDS011;45702;52.982;6.658;2023-04-28T04:17:37;47.35;;;22.45;;
58864;SDS011;45702;52.982;6.658;2023-04-28T04:20:02;50.28;;;23.25;;
58864;SDS011;45702;52.982;6.658;2023-04-28T04:22:29;49.22;;;21.75;;
58864;SDS011;45702;52.982;6.658;2023-04-28T04:24:54;44.47;;;22.15;;
58864;SDS011;45702;52.982;6.658;2023-04-28T04:27:20;50.25;;;23.45;;
58864;SDS011;45702;52.982;6.658;2023-04-28T04:29:46;48.60;;;22.17;;
58864;SDS011;45702;52.982;6.658;2023-04-28T04:32:11;46.90;;;22.08;;
58864;SDS011;45702;52.982;6.658;2023-04-28T04:34:37;50.90;;;23.25;;
58864;SDS011;45702;52.982;6.658;2023-04-28T04:37:02;56.40;;;23.27;;
58864;SDS011;45702;52.982;6.658;2023-04-28T04:39:28;44.80;;;21.83;;
58864;SDS011;45702;52.982;6.658;2023-04-28T04:41:54;48.20;;;22.70;;
58864;SDS011;45702;52.982;6.658;2023-04-28T04:44:19;46.10;;;22.17;;
58864;SDS011;45702;52.982;6.658;2023-04-28T04:46:45;49.03;;;22.48;;
58864;SDS011;45702;52.982;6.658;2023-04-28T04:49:11;48.67;;;22.50;;
58864;SDS011;45702;52.982;6.658;2023-04-28T04:51:37;51.42;;;23.67;;
58864;SDS011;45702;52.982;6.658;2023-04-28T04:54:03;50.67;;;23.65;;
58864;SDS011;45702;52.982;6.658;2023-04-28T04:56:29;50.90;;;23.92;;
58864;SDS011;45702;52.982;6.658;2023-04-28T04:58:55;55.60;;;23.92;;
58864;SDS011;45702;52.982;6.658;2023-04-28T05:01:21;52.97;;;23.00;;
58864;SDS011;45702;52.982;6.658;2023-04-28T05:03:47;51.97;;;23.23;;
58864;SDS011;45702;52.982;6.658;2023-04-28T05:06:13;51.00;;;23.33;;
58864;SDS011;45702;52.982;6.658;2023-04-28T05:08:38;50.13;;;22.85;;
58864;SDS011;45702;52.982;6.658;2023-04-28T05:11:04;55.80;;;23.02;;
58864;SDS011;45702;52.982;6.658;2023-04-28T05:13:30;47.45;;;22.27;;
58864;SDS011;45702;52.982;6.658;2023-04-28T05:15:56;47.50;;;22.33;;
58864;SDS011;45702;52.982;6.658;2023-04-28T05:18:21;48.40;;;23.05;;
58864;SDS011;45702;52.982;6.658;2023-04-28T05:20:47;49.72;;;23.50;;
58864;SDS011;45702;52.982;6.658;2023-04-28T05:23:13;55.75;;;24.08;;
58864;SDS011;45702;52.982;6.658;2023-04-28T05:25:38;53.75;;;23.30;;
58864;SDS011;45702;52.982;6.658;2023-04-28T05:28:07;50.20;;;22.58;;
58864;SDS011;45702;52.982;6.658;2023-04-28T05:30:34;48.00;;;21.90;;
58864;SDS011;45702;52.982;6.658;2023-04-28T05:33:02;50.20;;;23.55;;
58864;SDS011;45702;52.982;6.658;2023-04-28T05:35:28;45.97;;;23.08;;
58864;SDS011;45702;52.982;6.658;2023-04-28T05:37:55;48.03;;;22.23;;
58864;SDS011;45702;52.982;6.658;2023-04-28T05:40:22;50.30;;;22.80;;
58864;SDS011;45702;52.982;6.658;2023-04-28T05:42:47;50.95;;;23.13;;
58864;SDS011;45702;52.982;6.658;2023-04-28T05:45:13;55.45;;;23.35;;
58864;SDS011;45702;52.982;6.658;2023-04-28T05:47:39;46.13;;;22.05;;
58864;SDS011;45702;52.982;6.658;2023-04-28T05:50:05;49.55;;;22.55;;
58864;SDS011;45702;52.982;6.658;2023-04-28T05:52:31;45.30;;;21.33;;
58864;SDS011;45702;52.982;6.658;2023-04-28T05:54:57;45.60;;;22.48;;
58864;SDS011;45702;52.982;6.658;2023-04-28T05:57:22;45.70;;;21.85;;
58864;SDS011;45702;52.982;6.658;2023-04-28T05:59:48;52.03;;;23.30;;
58864;SDS011;45702;52.982;6.658;2023-04-28T06:02:14;46.40;;;21.13;;
58864;SDS011;45702;52.982;6.658;2023-04-28T06:04:40;49.13;;;22.02;;
58864;SDS011;45702;52.982;6.658;2023-04-28T06:07:06;50.47;;;22.15;;
58864;SDS011;45702;52.982;6.658;2023-04-28T06:09:32;48.58;;;22.00;;
58864;SDS011;45702;52.982;6.658;2023-04-28T06:11:58;45.42;;;20.98;;
58864;SDS011;45702;52.982;6.658;2023-04-28T06:14:23;44.55;;;22.02;;
58864;SDS011;45702;52.982;6.658;2023-04-28T06:16:49;46.47;;;21.38;;
58864;SDS011;45702;52.982;6.658;2023-04-28T06:19:15;54.03;;;22.30;;
58864;SDS011;45702;52.982;6.658;2023-04-28T06:21:43;49.67;;;21.77;;
58864;SDS011;45702;52.982;6.658;2023-04-28T06:24:09;45.05;;;21.60;;
58864;SDS011;45702;52.982;6.658;2023-04-28T06:26:34;47.72;;;21.33;;
58864;SDS011;45702;52.982;6.658;2023-04-28T06:29:00;46.05;;;21.77;;
58864;SDS011;45702;52.982;6.658;2023-04-28T06:31:26;43.03;;;20.83;;
58864;SDS011;45702;52.982;6.658;2023-04-28T06:33:51;43.75;;;20.90;;
58864;SDS011;45702;52.982;6.658;2023-04-28T06:36:17;43.28;;;21.20;;
58864;SDS011;45702;52.982;6.658;2023-04-28T06:38:43;43.88;;;21.30;;
58864;SDS011;45702;52.982;6.658;2023-04-28T06:41:09;42.58;;;20.60;;
58864;SDS011;45702;52.982;6.658;2023-04-28T06:43:36;43.75;;;21.05;;
58864;SDS011;45702;52.982;6.658;2023-04-28T06:46:02;44.03;;;19.65;;
58864;SDS011;45702;52.982;6.658;2023-04-28T06:48:28;41.35;;;20.00;;
58864;SDS011;45702;52.982;6.658;2023-04-28T06:50:53;40.83;;;20.17;;
58864;SDS011;45702;52.982;6.658;2023-04-28T06:53:19;44.60;;;21.30;;
58864;SDS011;45702;52.982;6.658;2023-04-28T06:55:45;43.47;;;20.35;;
58864;SDS011;45702;52.982;6.658;2023-04-28T06:58:10;41.25;;;20.85;;
58864;SDS011;45702;52.982;6.658;2023-04-28T07:00:37;45.58;;;22.30;;
58864;SDS011;45702;52.982;6.658;2023-04-28T07:03:02;44.70;;;21.60;;
58864;SDS011;45702;52.982;6.658;2023-04-28T07:05:29;42.53;;;21.00;;
58864;SDS011;45702;52.982;6.658;2023-04-28T07:07:54;46.42;;;22.00;;
58864;SDS011;45702;52.982;6.658;2023-04-28T07:10:20;43.95;;;21.80;;
58864;SDS011;45702;52.982;6.658;2023-04-28T07:12:46;44.63;;;21.23;;
58864;SDS011;45702;52.982;6.658;2023-04-28T07:15:14;46.67;;;21.88;;
58864;SDS011;45702;52.982;6.658;2023-04-28T07:17:40;43.97;;;21.15;;
58864;SDS011;45702;52.982;6.658;2023-04-28T07:20:06;42.15;;;20.98;;
58864;SDS011;45702;52.982;6.658;2023-04-28T07:22:32;43.65;;;20.70;;
58864;SDS011;45702;52.982;6.658;2023-04-28T07:24:57;42.90;;;21.63;;
58864;SDS011;45702;52.982;6.658;2023-04-28T07:27:23;42.70;;;21.02;;
58864;SDS011;45702;52.982;6.658;2023-04-28T07:29:49;40.03;;;19.98;;
58864;SDS011;45702;52.982;6.658;2023-04-28T07:32:14;42.65;;;19.52;;
58864;SDS011;45702;52.982;6.658;2023-04-28T07:34:40;42.95;;;19.92;;
58864;SDS011;45702;52.982;6.658;2023-04-28T07:37:06;39.13;;;19.15;;
58864;SDS011;45702;52.982;6.658;2023-04-28T07:39:32;36.10;;;18.98;;
58864;SDS011;45702;52.982;6.658;2023-04-28T07:41:59;39.30;;;18.80;;
58864;SDS011;45702;52.982;6.658;2023-04-28T07:44:26;40.67;;;19.10;;
58864;SDS011;45702;52.982;6.658;2023-04-28T07:46:53;35.22;;;18.58;;
58864;SDS011;45702;52.982;6.658;2023-04-28T07:49:18;36.53;;;18.48;;
58864;SDS011;45702;52.982;6.658;2023-04-28T07:51:45;41.47;;;19.25;;
58864;SDS011;45702;52.982;6.658;2023-04-28T07:54:11;37.25;;;18.23;;
58864;SDS011;45702;52.982;6.658;2023-04-28T07:56:40;33.33;;;18.35;;
58864;SDS011;45702;52.982;6.658;2023-04-28T07:59:06;35.35;;;17.58;;
58864;SDS011;45702;52.982;6.658;2023-04-28T08:01:31;34.30;;;17.67;;
58864;SDS011;45702;52.982;6.658;2023-04-28T08:03:57;35.60;;;18.00;;
58864;SDS011;45702;52.982;6.658;2023-04-28T08:06:23;33.35;;;18.15;;
58864;SDS011;45702;52.982;6.658;2023-04-28T08:08:49;34.75;;;17.33;;
58864;SDS011;45702;52.982;6.658;2023-04-28T08:11:14;37.92;;;17.45;;
58864;SDS011;45702;52.982;6.658;2023-04-28T08:13:40;35.42;;;16.98;;
58864;SDS011;45702;52.982;6.658;2023-04-28T08:16:05;33.50;;;17.05;;
58864;SDS011;45702;52.982;6.658;2023-04-28T08:18:31;31.42;;;16.67;;
58864;SDS011;45702;52.982;6.658;2023-04-28T08:20:57;33.70;;;17.48;;
58864;SDS011;45702;52.982;6.658;2023-04-28T08:23:23;40.47;;;17.17;;
58864;SDS011;45702;52.982;6.658;2023-04-28T08:25:52;30.42;;;16.83;;
58864;SDS011;45702;52.982;6.658;2023-04-28T08:28:18;34.97;;;16.55;;
58864;SDS011;45702;52.982;6.658;2023-04-28T08:30:43;35.05;;;17.23;;
58864;SDS011;45702;52.982;6.658;2023-04-28T08:33:09;32.08;;;17.05;;
58864;SDS011;45702;52.982;6.658;2023-04-28T08:35:35;32.72;;;17.55;;
58864;SDS011;45702;52.982;6.658;2023-04-28T08:38:00;37.83;;;17.90;;
58864;SDS011;45702;52.982;6.658;2023-04-28T08:40:26;37.10;;;18.33;;
58864;SDS011;45702;52.982;6.658;2023-04-28T08:42:54;39.20;;;18.52;;
58864;SDS011;45702;52.982;6.658;2023-04-28T08:45:20;35.60;;;18.95;;
58864;SDS011;45702;52.982;6.658;2023-04-28T08:47:48;38.22;;;20.10;;
58864;SDS011;45702;52.982;6.658;2023-04-28T08:50:17;38.03;;;20.70;;
58864;SDS011;45702;52.982;6.658;2023-04-28T08:52:46;39.33;;;18.90;;
58864;SDS011;45702;52.982;6.658;2023-04-28T08:55:12;41.47;;;21.55;;
58864;SDS011;45702;52.982;6.658;2023-04-28T08:57:39;40.72;;;20.85;;
58864;SDS011;45702;52.982;6.658;2023-04-28T09:00:11;36.60;;;19.83;;
58864;SDS011;45702;52.982;6.658;2023-04-28T09:02:37;42.95;;;23.90;;
58864;SDS011;45702;52.982;6.658;2023-04-28T09:05:06;38.35;;;20.20;;
58864;SDS011;45702;52.982;6.658;2023-04-28T09:07:32;37.47;;;19.83;;
58864;SDS011;45702;52.982;6.658;2023-04-28T09:10:17;46.70;;;19.45;;
58864;SDS011;45702;52.982;6.658;2023-04-28T09:12:45;40.28;;;20.27;;
58864;SDS011;45702;52.982;6.658;2023-04-28T09:15:29;39.35;;;20.15;;
58864;SDS011;45702;52.982;6.658;2023-04-28T09:17:56;38.80;;;19.00;;
58864;SDS011;45702;52.982;6.658;2023-04-28T09:20:23;38.15;;;19.48;;
58864;SDS011;45702;52.982;6.658;2023-04-28T09:22:53;33.53;;;18.70;;
58864;SDS011;45702;52.982;6.658;2023-04-28T09:25:21;36.65;;;18.70;;
58864;SDS011;45702;52.982;6.658;2023-04-28T09:27:50;36.33;;;19.75;;
58864;SDS011;45702;52.982;6.658;2023-04-28T09:30:17;39.83;;;20.13;;
58864;SDS011;45702;52.982;6.658;2023-04-28T09:32:44;36.22;;;18.92;;
58864;SDS011;45702;52.982;6.658;2023-04-28T09:35:09;37.17;;;19.52;;
58864;SDS011;45702;52.982;6.658;2023-04-28T09:37:35;37.20;;;19.98;;
58864;SDS011;45702;52.982;6.658;2023-04-28T09:40:05;32.67;;;18.08;;
58864;SDS011;45702;52.982;6.658;2023-04-28T09:42:33;32.92;;;17.73;;
58864;SDS011;45702;52.982;6.658;2023-04-28T09:45:17;31.00;;;17.30;;
58864;SDS011;45702;52.982;6.658;2023-04-28T09:47:44;37.22;;;17.67;;
58864;SDS011;45702;52.982;6.658;2023-04-28T09:50:13;36.88;;;19.13;;
58864;SDS011;45702;52.982;6.658;2023-04-28T09:52:41;35.85;;;18.75;;
58864;SDS011;45702;52.982;6.658;2023-04-28T09:55:20;33.33;;;17.92;;
58864;SDS011;45702;52.982;6.658;2023-04-28T09:57:47;34.88;;;17.73;;
58864;SDS011;45702;52.982;6.658;2023-04-28T10:00:17;29.45;;;17.58;;
58864;SDS011;45702;52.982;6.658;2023-04-28T10:02:44;32.17;;;17.63;;
58864;SDS011;45702;52.982;6.658;2023-04-28T10:05:10;33.28;;;18.55;;
58864;SDS011;45702;52.982;6.658;2023-04-28T10:07:40;31.92;;;17.00;;
58864;SDS011;45702;52.982;6.658;2023-04-28T10:10:06;30.15;;;16.77;;
58864;SDS011;45702;52.982;6.658;2023-04-28T10:12:33;31.02;;;18.05;;
58864;SDS011;45702;52.982;6.658;2023-04-28T10:14:59;33.35;;;16.67;;
58864;SDS011;45702;52.982;6.658;2023-04-28T10:17:25;29.10;;;16.83;;
58864;SDS011;45702;52.982;6.658;2023-04-28T10:19:53;30.87;;;17.37;;
58864;SDS011;45702;52.982;6.658;2023-04-28T10:27:52;28.95;;;17.30;;
58864;SDS011;45702;52.982;6.658;2023-04-28T10:30:19;28.27;;;16.88;;
58864;SDS011;45702;52.982;6.658;2023-04-28T10:33:34;30.35;;;17.45;;
58864;SDS011;45702;52.982;6.658;2023-04-28T10:35:41;29.60;;;15.93;;
58864;SDS011;45702;52.982;6.658;2023-04-28T10:38:11;30.60;;;16.65;;
58864;SDS011;45702;52.982;6.658;2023-04-28T10:43:09;28.25;;;16.33;;
58864;SDS011;45702;52.982;6.658;2023-04-28T10:46:19;29.15;;;16.67;;
58864;SDS011;45702;52.982;6.658;2023-04-28T10:58:35;27.35;;;16.30;;
58864;SDS011;45702;52.982;6.658;2023-04-28T11:03:49;31.58;;;17.00;;
58864;SDS011;45702;52.982;6.658;2023-04-28T11:06:31;26.15;;;15.82;;
58864;SDS011;45702;52.982;6.658;2023-04-28T11:09:02;31.35;;;17.65;;
58864;SDS011;45702;52.982;6.658;2023-04-28T11:19:24;28.90;;;16.38;;
58864;SDS011;45702;52.982;6.658;2023-04-28T11:21:59;28.05;;;16.20;;
58864;SDS011;45702;52.982;6.658;2023-04-28T11:24:26;28.92;;;15.98;;
58864;SDS011;45702;52.982;6.658;2023-04-28T11:26:54;25.17;;;15.30;;
58864;SDS011;45702;52.982;6.658;2023-04-28T11:29:37;24.52;;;16.20;;
58864;SDS011;45702;52.982;6.658;2023-04-28T11:32:08;31.45;;;16.38;;
58864;SDS011;45702;52.982;6.658;2023-04-28T11:34:50;23.20;;;15.20;;
58864;SDS011;45702;52.982;6.658;2023-04-28T11:37:16;26.50;;;15.82;;
58864;SDS011;45702;52.982;6.658;2023-04-28T11:39:41;30.38;;;16.10;;
58864;SDS011;45702;52.982;6.658;2023-04-28T11:42:10;28.23;;;16.48;;
58864;SDS011;45702;52.982;6.658;2023-04-28T11:44:36;30.80;;;16.30;;
58864;SDS011;45702;52.982;6.658;2023-04-28T11:47:02;24.92;;;15.98;;
58864;SDS011;45702;52.982;6.658;2023-04-28T11:49:29;29.67;;;16.05;;
58864;SDS011;45702;52.982;6.658;2023-04-28T11:52:08;31.60;;;16.52;;
58864;SDS011;45702;52.982;6.658;2023-04-28T11:54:35;30.23;;;16.75;;
58864;SDS011;45702;52.982;6.658;2023-04-28T11:57:01;31.52;;;17.15;;
58864;SDS011;45702;52.982;6.658;2023-04-28T11:59:29;27.63;;;16.30;;
58864;SDS011;45702;52.982;6.658;2023-04-28T12:01:58;29.98;;;16.75;;
58864;SDS011;45702;52.982;6.658;2023-04-28T12:04:27;31.10;;;17.42;;
58864;SDS011;45702;52.982;6.658;2023-04-28T12:07:00;25.58;;;16.58;;
58864;SDS011;45702;52.982;6.658;2023-04-28T12:09:34;28.75;;;17.48;;
58864;SDS011;45702;52.982;6.658;2023-04-28T12:12:02;30.35;;;17.80;;
58864;SDS011;45702;52.982;6.658;2023-04-28T12:14:29;27.03;;;17.23;;
58864;SDS011;45702;52.982;6.658;2023-04-28T12:16:59;28.92;;;17.42;;
58864;SDS011;45702;52.982;6.658;2023-04-28T12:19:25;28.40;;;17.92;;
58864;SDS011;45702;52.982;6.658;2023-04-28T12:21:58;31.90;;;18.02;;
58864;SDS011;45702;52.982;6.658;2023-04-28T12:24:25;27.98;;;17.67;;
58864;SDS011;45702;52.982;6.658;2023-04-28T12:26:51;32.80;;;18.23;;
58864;SDS011;45702;52.982;6.658;2023-04-28T12:29:34;32.97;;;17.63;;
58864;SDS011;45702;52.982;6.658;2023-04-28T12:32:07;31.17;;;18.02;;
58864;SDS011;45702;52.982;6.658;2023-04-28T12:34:33;29.83;;;17.80;;
58864;SDS011;45702;52.982;6.658;2023-04-28T12:37:00;30.95;;;18.52;;
58864;SDS011;45702;52.982;6.658;2023-04-28T12:39:29;31.70;;;18.92;;
58864;SDS011;45702;52.982;6.658;2023-04-28T12:41:55;33.70;;;19.45;;
58864;SDS011;45702;52.982;6.658;2023-04-28T12:44:23;36.00;;;18.98;;
58864;SDS011;45702;52.982;6.658;2023-04-28T12:46:50;32.75;;;19.42;;
58864;SDS011;45702;52.982;6.658;2023-04-28T12:49:16;33.95;;;19.48;;
58864;SDS011;45702;52.982;6.658;2023-04-28T12:51:42;35.58;;;19.90;;
58864;SDS011;45702;52.982;6.658;2023-04-28T12:54:07;38.10;;;20.38;;
58864;SDS011;45702;52.982;6.658;2023-04-28T12:56:33;34.15;;;20.05;;
58864;SDS011;45702;52.982;6.658;2023-04-28T12:58:59;37.65;;;20.08;;
58864;SDS011;45702;52.982;6.658;2023-04-28T13:01:28;31.45;;;19.98;;
58864;SDS011;45702;52.982;6.658;2023-04-28T13:03:54;31.23;;;19.58;;
58864;SDS011;45702;52.982;6.658;2023-04-28T13:06:20;37.45;;;20.55;;
58864;SDS011;45702;52.982;6.658;2023-04-28T13:08:46;33.25;;;20.17;;
58864;SDS011;45702;52.982;6.658;2023-04-28T13:11:11;36.08;;;21.30;;
58864;SDS011;45702;52.982;6.658;2023-04-28T13:13:37;33.05;;;20.08;;
58864;SDS011;45702;52.982;6.658;2023-04-28T13:16:03;37.85;;;20.92;;
58864;SDS011;45702;52.982;6.658;2023-04-28T13:18:29;35.13;;;20.55;;
58864;SDS011;45702;52.982;6.658;2023-04-28T13:20:55;39.25;;;21.75;;
58864;SDS011;45702;52.982;6.658;2023-04-28T13:23:21;38.17;;;21.40;;
58864;SDS011;45702;52.982;6.658;2023-04-28T13:25:47;33.70;;;21.00;;
58864;SDS011;45702;52.982;6.658;2023-04-28T13:28:13;35.58;;;21.75;;
58864;SDS011;45702;52.982;6.658;2023-04-28T13:30:39;40.67;;;22.00;;
58864;SDS011;45702;52.982;6.658;2023-04-28T13:33:05;42.55;;;23.35;;
58864;SDS011;45702;52.982;6.658;2023-04-28T13:35:31;43.03;;;25.50;;
58864;SDS011;45702;52.982;6.658;2023-04-28T13:37:57;46.95;;;27.13;;
58864;SDS011;45702;52.982;6.658;2023-04-28T13:42:52;52.22;;;29.00;;
58864;SDS011;45702;52.982;6.658;2023-04-28T13:45:18;52.97;;;30.67;;
58864;SDS011;45702;52.982;6.658;2023-04-28T13:47:44;58.75;;;32.00;;
58864;SDS011;45702;52.982;6.658;2023-04-28T13:50:09;62.47;;;33.33;;
58864;SDS011;45702;52.982;6.658;2023-04-28T13:52:35;63.92;;;33.45;;
58864;SDS011;45702;52.982;6.658;2023-04-28T13:55:01;64.22;;;35.83;;
58864;SDS011;45702;52.982;6.658;2023-04-28T13:57:26;62.50;;;33.72;;
58864;SDS011;45702;52.982;6.658;2023-04-28T13:59:52;64.45;;;34.53;;
58864;SDS011;45702;52.982;6.658;2023-04-28T14:02:18;66.65;;;35.83;;
58864;SDS011;45702;52.982;6.658;2023-04-28T14:04:43;75.15;;;37.47;;
58864;SDS011;45702;52.982;6.658;2023-04-28T14:07:15;75.13;;;38.88;;
58864;SDS011;45702;52.982;6.658;2023-04-28T14:09:41;79.55;;;40.15;;
58864;SDS011;45702;52.982;6.658;2023-04-28T14:12:07;75.93;;;39.38;;
58864;SDS011;45702;52.982;6.658;2023-04-28T14:14:35;70.70;;;39.63;;
58864;SDS011;45702;52.982;6.658;2023-04-28T14:17:01;76.82;;;39.47;;
58864;SDS011;45702;52.982;6.658;2023-04-28T14:19:27;74.22;;;40.50;;
58864;SDS011;45702;52.982;6.658;2023-04-28T14:21:53;70.55;;;38.88;;
58864;SDS011;45702;52.982;6.658;2023-04-28T14:24:19;74.60;;;40.17;;
58864;SDS011;45702;52.982;6.658;2023-04-28T14:26:45;88.93;;;43.58;;
58864;SDS011;45702;52.982;6.658;2023-04-28T14:29:11;78.25;;;42.70;;
58864;SDS011;45702;52.982;6.658;2023-04-28T14:31:37;75.50;;;40.17;;
58864;SDS011;45702;52.982;6.658;2023-04-28T14:34:03;88.78;;;42.95;;
58864;SDS011;45702;52.982;6.658;2023-04-28T14:36:32;76.53;;;41.92;;
58864;SDS011;45702;52.982;6.658;2023-04-28T14:38:58;85.45;;;43.40;;
58864;SDS011;45702;52.982;6.658;2023-04-28T14:41:24;80.40;;;41.40;;
58864;SDS011;45702;52.982;6.658;2023-04-28T14:43:50;73.70;;;40.50;;
58864;SDS011;45702;52.982;6.658;2023-04-28T14:46:16;83.88;;;42.67;;
58864;SDS011;45702;52.982;6.658;2023-04-28T14:48:47;88.65;;;44.80;;
58864;SDS011;45702;52.982;6.658;2023-04-28T14:51:17;83.50;;;42.60;;